Time;durP1;ratioP1;P1;durP2;ratioP2;P2;SDS_P1;SDS_P2;PMS_P1;PMS_P2;Temp;Humidity;BMP_temperature;BMP_pressure;BME280_temperature;BME280_humidity;BME280_pressure;Samples;Min_cycle;Max_cycle;Signal;HPM_P1;HPM_P2
2022/06/24 00:01:25;;;;;;;;;;;;;;;;;;5130981;28;1292;-67
2022/06/24 00:03:51;;;;;;;;;;;;;;;;;;5130508;28;943;-66
2022/06/24 00:06:16;;;;;;;;;;;;;;;;;;5130826;28;1198;-66
2022/06/24 00:08:49;;;;;;;;;;;;;;;;;;5130475;27;765;-66
2022/06/24 00:11:14;;;;;;;;;;;;;;;;;;5131739;27;851;-66
2022/06/24 00:13:39;;;;;;;;;;;;;;;;;;5130815;28;907;-65
2022/06/24 00:16:04;;;;;;;;;;;;;;;;;;5130456;27;1976;-65
2022/06/24 00:18:30;;;;;;;;;;;;;;;;;;5131837;27;828;-66
2022/06/24 00:20:55;;;;;;;;;;;;;;;;;;5131451;28;812;-67
2022/06/24 00:23:21;;;;;;;;;;;;;;;;;;5133599;27;848;-66
2022/06/24 00:25:47;;;;;;;;;;;;;;;;;;5135182;27;831;-66
2022/06/24 00:28:13;;;;;;;;;;;;;;;;;;5135592;27;905;-66
2022/06/24 00:30:43;;;;;;;;;;;;;;;;;;5135772;27;1049;-66
2022/06/24 00:33:10;;;;;;;;;;;;;;;;;;5133832;27;1183;-67
2022/06/24 00:35:37;;;;;;;;;;;;;;;;;;5135142;27;1902;-67
2022/06/24 00:38:19;;;;;;;;;;;;;;;;;;5134828;27;856;-67
2022/06/24 00:40:47;;;;;;;;;;;;;;;;;;5135277;27;942;-66
2022/06/24 00:43:19;;;;;;;;;;;;;;;;;;5135125;27;903;-67
2022/06/24 00:45:48;;;;;;;;;;;;;;;;;;5135073;27;1057;-67
2022/06/24 00:48:14;;;;;;;;;;;;;;;;;;5133594;27;1918;-67
2022/06/24 00:50:41;;;;;;;;;;;;;;;;;;5133497;27;717;-66
2022/06/24 00:53:07;;;;;;;;;;;;;;;;;;5135137;27;871;-66
2022/06/24 00:55:36;;;;;;;;;;;;;;;;;;5134768;27;789;-66
2022/06/24 00:58:02;;;;;;;;;;;;;;;;;;5133359;27;1340;-66
2022/06/24 01:00:29;;;;;;;;;;;;;;;;;;5135026;27;801;-66
2022/06/24 01:02:59;;;;;;;;;;;;;;;;;;5135358;27;931;-67
2022/06/24 01:05:25;;;;;;;;;;;;;;;;;;5135244;27;899;-67
2022/06/24 01:07:50;;;;;;;;;;;;;;;;;;5135287;27;939;-66
2022/06/24 01:10:15;;;;;;;;;;;;;;;;;;5133728;27;979;-67
2022/06/24 01:12:40;;;;;;;;;;;;;;;;;;5133953;27;789;-66
2022/06/24 01:15:06;;;;;;;;;;;;;;;;;;5134036;27;828;-66
2022/06/24 01:17:31;;;;;;;;;;;;;;;;;;5134795;27;1889;-66
2022/06/24 01:19:57;;;;;;;;;;;;;;;;;;5134405;27;875;-66
2022/06/24 01:22:23;;;;;;;;;;;;;;;;;;5135122;27;915;-67
2022/06/24 01:24:49;;;;;;;;;;;;;;;;;;5135153;27;911;-67
2022/06/24 01:27:14;;;;;;;;;;;;;;;;;;5135529;27;1020;-66
2022/06/24 01:29:39;;;;;;;;;;;;;;;;;;5135605;27;891;-67
2022/06/24 01:32:05;;;;;;;;;;;;;;;;;;5134305;27;1052;-67
2022/06/24 01:34:30;;;;;;;;;;;;;;;;;;5134592;27;773;-66
2022/06/24 01:36:55;;;;;;;;;;;;;;;;;;5134307;27;1980;-66
2022/06/24 01:39:21;;;;;;;;;;;;;;;;;;5134248;27;1035;-67
2022/06/24 01:41:46;;;;;;;;;;;;;;;;;;5134313;27;903;-67
2022/06/24 01:44:11;;;;;;;;;;;;;;;;;;5134123;27;750;-66
2022/06/24 01:46:37;;;;;;;;;;;;;;;;;;5133815;27;812;-66
2022/06/24 01:49:03;;;;;;;;;;;;;;;;;;5132812;27;1189;-67
2022/06/24 01:51:29;;;;;;;;;;;;;;;;;;5132711;27;844;-67
2022/06/24 01:53:54;;;;;;;;;;;;;;;;;;5127114;27;1172;-66
2022/06/24 01:56:20;;;;;;;;;;;;;;;;;;5111086;28;1894;-67
2022/06/24 01:58:45;;;;;;;;;;;;;;;;;;5112164;27;1269;-66
2022/06/24 02:01:11;;;;;;;;;;;;;;;;;;5114260;28;800;-66
2022/06/24 02:03:38;;;;;;;;;;;;;;;;;;5111869;28;1223;-66
2022/06/24 02:06:05;;;;;;;;;;;;;;;;;;5113706;28;597;-66
2022/06/24 02:08:30;;;;;;;;;;;;;;;;;;5111073;28;1292;-66
2022/06/24 02:13:40;;;;;;;;;;;;;;;;;;5113090;28;691;-66
2022/06/24 02:16:06;;;;;;;;;;;;;;;;;;5094596;28;1901;-66
2022/06/24 02:18:32;;;;;;;;;;;;;;;;;;5094209;28;1410;-66
2022/06/24 02:20:58;;;;;;;;;;;;;;;;;;5112863;28;960;-66
2022/06/24 02:23:23;;;;;;;;;;;;;;;;;;5112858;28;1151;-66
2022/06/24 02:25:49;;;;;;;;;;;;;;;;;;5111005;28;1282;-66
2022/06/24 02:28:15;;;;;;;;;;;;;;;;;;5112242;28;898;-67
2022/06/24 02:30:42;;;;;;;;;;;;;;;;;;5111154;28;905;-67
2022/06/24 02:33:08;;;;;;;;;;;;;;;;;;5112467;28;1108;-66
2022/06/24 02:35:33;;;;;;;;;;;;;;;;;;5112378;28;840;-66
2022/06/24 02:37:59;;;;;;;;;;;;;;;;;;5112098;28;1961;-66
2022/06/24 02:43:13;;;;;;;;;;;;;;;;;;5112601;28;694;-66
2022/06/24 02:45:41;;;;;;;;;;;;;;;;;;5111636;27;765;-66
2022/06/24 02:48:07;;;;;;;;;;;;;;;;;;5112271;28;887;-66
2022/06/24 02:50:37;;;;;;;;;;;;;;;;;;5111487;28;825;-67
2022/06/24 02:53:02;;;;;;;;;;;;;;;;;;5110472;28;1196;-66
2022/06/24 02:55:28;;;;;;;;;;;;;;;;;;5111706;28;809;-66
2022/06/24 02:57:53;;;;;;;;;;;;;;;;;;5110480;28;1906;-66
2022/06/24 03:00:18;;;;;;;;;;;;;;;;;;5112067;28;749;-66
2022/06/24 03:02:44;;;;;;;;;;;;;;;;;;5110503;28;1329;-66
2022/06/24 03:05:10;;;;;;;;;;;;;;;;;;5112024;28;883;-66
2022/06/24 03:07:35;;;;;;;;;;;;;;;;;;5111088;28;1033;-66
2022/06/24 03:10:01;;;;;;;;;;;;;;;;;;5111673;28;995;-66
2022/06/24 03:12:26;;;;;;;;;;;;;;;;;;5110115;28;1226;-66
2022/06/24 03:14:51;;;;;;;;;;;;;;;;;;5111115;28;974;-66
2022/06/24 03:17:16;;;;;;;;;;;;;;;;;;5109562;28;1955;-66
2022/06/24 03:19:42;;;;;;;;;;;;;;;;;;5111599;28;840;-66
2022/06/24 03:22:07;;;;;;;;;;;;;;;;;;5094273;28;1166;-66
2022/06/24 03:24:32;;;;;;;;;;;;;;;;;;5111488;28;884;-66
2022/06/24 03:26:57;;;;;;;;;;;;;;;;;;5111925;28;943;-66
2022/06/24 03:29:23;;;;;;;;;;;;;;;;;;5110552;28;805;-66
2022/06/24 03:31:48;;;;;;;;;;;;;;;;;;5111215;28;1211;-66
2022/06/24 03:34:13;;;;;;;;;;;;;;;;;;5111585;28;864;-66
2022/06/24 03:36:38;;;;;;;;;;;;;;;;;;5111104;28;1976;-66
2022/06/24 03:39:04;;;;;;;;;;;;;;;;;;5111344;28;1065;-66
2022/06/24 03:41:29;;;;;;;;;;;;;;;;;;5110849;28;1018;-66
2022/06/24 03:43:54;;;;;;;;;;;;;;;;;;5110211;28;942;-66
2022/06/24 03:46:19;;;;;;;;;;;;;;;;;;5111236;28;904;-66
2022/06/24 03:48:45;;;;;;;;;;;;;;;;;;5110877;28;833;-66
2022/06/24 03:51:10;;;;;;;;;;;;;;;;;;5110875;28;934;-66
2022/06/24 03:53:35;;;;;;;;;;;;;;;;;;5108795;28;813;-66
2022/06/24 03:56:00;;;;;;;;;;;;;;;;;;5110652;28;1885;-66
2022/06/24 03:58:26;;;;;;;;;;;;;;;;;;5109586;28;1025;-66
2022/06/24 04:00:51;;;;;;;;;;;;;;;;;;5108912;28;1407;-66
2022/06/24 04:03:16;;;;;;;;;;;;;;;;;;5110620;28;883;-66
2022/06/24 04:05:41;;;;;;;;;;;;;;;;;;5109035;28;1406;-67
2022/06/24 04:08:07;;;;;;;;;;;;;;;;;;5110894;28;840;-66
2022/06/24 04:10:32;;;;;;;;;;;;;;;;;;5110355;28;824;-67
2022/06/24 04:12:57;;;;;;;;;;;;;;;;;;5110365;28;950;-66
2022/06/24 04:15:23;;;;;;;;;;;;;;;;;;5109019;28;1158;-66
2022/06/24 04:17:48;;;;;;;;;;;;;;;;;;5110383;28;1994;-66
2022/06/24 04:20:15;;;;;;;;;;;;;;;;;;5110715;28;761;-67
2022/06/24 04:22:40;;;;;;;;;;;;;;;;;;5108868;28;1268;-66
2022/06/24 04:25:06;;;;;;;;;;;;;;;;;;5110647;28;875;-66
2022/06/24 04:27:31;;;;;;;;;;;;;;;;;;5110200;28;998;-66
2022/06/24 04:30:04;;;;;;;;;;;;;;;;;;5110804;28;939;-66
2022/06/24 04:32:29;;;;;;;;;;;;;;;;;;5109915;28;1140;-66
2022/06/24 04:34:54;;;;;;;;;;;;;;;;;;5110310;28;821;-66
2022/06/24 04:37:19;;;;;;;;;;;;;;;;;;5110098;28;1905;-66
2022/06/24 04:39:45;;;;;;;;;;;;;;;;;;5109924;28;1011;-66
2022/06/24 04:42:10;;;;;;;;;;;;;;;;;;5110666;28;833;-66
2022/06/24 04:44:36;;;;;;;;;;;;;;;;;;5108631;28;1233;-66
2022/06/24 04:47:01;;;;;;;;;;;;;;;;;;5110838;28;844;-66
2022/06/24 04:49:26;;;;;;;;;;;;;;;;;;5110354;28;883;-66
2022/06/24 04:51:52;;;;;;;;;;;;;;;;;;5110125;28;927;-66
2022/06/24 04:54:17;;;;;;;;;;;;;;;;;;5108756;28;995;-66
2022/06/24 04:56:42;;;;;;;;;;;;;;;;;;5109981;28;1968;-66
2022/06/24 04:59:07;;;;;;;;;;;;;;;;;;5109158;28;1338;-66
2022/06/24 05:01:33;;;;;;;;;;;;;;;;;;5110147;28;955;-66
2022/06/24 05:04:01;;;;;;;;;;;;;;;;;;5110263;28;829;-66
2022/06/24 05:06:26;;;;;;;;;;;;;;;;;;5109316;28;963;-66
2022/06/24 05:08:51;;;;;;;;;;;;;;;;;;5111769;28;995;-66
2022/06/24 05:11:16;;;;;;;;;;;;;;;;;;5114350;28;872;-66
2022/06/24 05:13:42;;;;;;;;;;;;;;;;;;5112701;28;1194;-66
2022/06/24 05:16:07;;;;;;;;;;;;;;;;;;5113633;28;1899;-66
2022/06/24 05:18:32;;;;;;;;;;;;;;;;;;5114526;28;1011;-66
2022/06/24 05:20:57;;;;;;;;;;;;;;;;;;5113799;28;1146;-66
2022/06/24 05:23:23;;;;;;;;;;;;;;;;;;5114690;27;1202;-66
2022/06/24 05:25:48;;;;;;;;;;;;;;;;;;5130900;27;1350;-66
2022/06/24 05:28:13;;;;;;;;;;;;;;;;;;5133014;27;1178;-66
2022/06/24 05:30:38;;;;;;;;;;;;;;;;;;5130943;27;1159;-66
2022/06/24 05:33:04;;;;;;;;;;;;;;;;;;5133672;27;1135;-66
2022/06/24 05:35:29;;;;;;;;;;;;;;;;;;5134361;27;1006;-66
2022/06/24 05:37:54;;;;;;;;;;;;;;;;;;5133408;27;1921;-66
2022/06/24 05:40:20;;;;;;;;;;;;;;;;;;5133882;27;801;-67
2022/06/24 05:42:45;;;;;;;;;;;;;;;;;;5133598;27;824;-66
2022/06/24 05:45:10;;;;;;;;;;;;;;;;;;5134524;27;643;-67
2022/06/24 05:47:35;;;;;;;;;;;;;;;;;;5133964;27;957;-67
2022/06/24 05:50:01;;;;;;;;;;;;;;;;;;5134580;27;831;-66
2022/06/24 05:55:10;;;;;;;;;;;;;;;;;;5134788;27;666;-67
2022/06/24 05:57:35;;;;;;;;;;;;;;;;;;5133209;27;1921;-67
2022/06/24 06:00:00;;;;;;;;;;;;;;;;;;5134055;27;867;-67
2022/06/24 06:02:25;;;;;;;;;;;;;;;;;;5133774;27;800;-66
2022/06/24 06:04:51;;;;;;;;;;;;;;;;;;5133208;27;828;-66
2022/06/24 06:07:16;;;;;;;;;;;;;;;;;;5134317;27;855;-66
2022/06/24 06:09:41;;;;;;;;;;;;;;;;;;5133995;27;813;-66
2022/06/24 06:12:07;;;;;;;;;;;;;;;;;;5132577;27;1157;-66
2022/06/24 06:14:32;;;;;;;;;;;;;;;;;;5134655;27;812;-66
2022/06/24 06:16:58;;;;;;;;;;;;;;;;;;5134377;27;1943;-66
2022/06/24 06:19:23;;;;;;;;;;;;;;;;;;5134650;27;953;-66
2022/06/24 06:21:48;;;;;;;;;;;;;;;;;;5134120;27;899;-68
2022/06/24 06:24:13;;;;;;;;;;;;;;;;;;5135399;27;1176;-67
2022/06/24 06:26:39;;;;;;;;;;;;;;;;;;5134277;27;875;-66
2022/06/24 06:29:04;;;;;;;;;;;;;;;;;;5134485;27;990;-67
2022/06/24 06:31:29;;;;;;;;;;;;;;;;;;5133838;27;1044;-68
2022/06/24 06:33:55;;;;;;;;;;;;;;;;;;5132212;27;1073;-68
2022/06/24 06:36:21;;;;;;;;;;;;;;;;;;5133643;27;1969;-67
2022/06/24 06:38:46;;;;;;;;;;;;;;;;;;5132735;27;982;-67
2022/06/24 06:41:12;;;;;;;;;;;;;;;;;;5132928;27;860;-67
2022/06/24 06:43:38;;;;;;;;;;;;;;;;;;5132468;27;966;-67
2022/06/24 06:46:04;;;;;;;;;;;;;;;;;;5131384;27;1424;-67
2022/06/24 06:48:29;;;;;;;;;;;;;;;;;;5133136;27;1082;-67
2022/06/24 06:50:55;;;;;;;;;;;;;;;;;;5131501;27;1367;-67
2022/06/24 06:53:21;;;;;;;;;;;;;;;;;;5134523;27;934;-66
2022/06/24 06:55:46;;;;;;;;;;;;;;;;;;5131844;27;1084;-68
2022/06/24 06:58:11;;;;;;;;;;;;;;;;;;5134041;27;1893;-67
2022/06/24 07:00:36;;;;;;;;;;;;;;;;;;5132207;27;1000;-67
2022/06/24 07:03:02;;;;;;;;;;;;;;;;;;5132817;27;952;-66
2022/06/24 07:05:27;;;;;;;;;;;;;;;;;;5131940;27;1356;-66
2022/06/24 07:07:52;;;;;;;;;;;;;;;;;;5133298;27;1007;-66
2022/06/24 07:10:17;;;;;;;;;;;;;;;;;;5133205;27;1061;-67
2022/06/24 07:12:43;;;;;;;;;;;;;;;;;;5132748;27;809;-67
2022/06/24 07:15:08;;;;;;;;;;;;;;;;;;5131120;27;1426;-67
2022/06/24 07:17:33;;;;;;;;;;;;;;;;;;5130609;27;1898;-67
2022/06/24 07:19:59;;;;;;;;;;;;;;;;;;5131768;27;837;-66
2022/06/24 07:22:24;;;;;;;;;;;;;;;;;;5132293;27;955;-66
2022/06/24 07:24:49;;;;;;;;;;;;;;;;;;5131836;27;1054;-66
2022/06/24 07:27:14;;;;;;;;;;;;;;;;;;5132423;27;860;-66
2022/06/24 07:29:40;;;;;;;;;;;;;;;;;;5132224;27;908;-68
2022/06/24 07:32:06;;;;;;;;;;;;;;;;;;5130817;27;1449;-66
2022/06/24 07:34:32;;;;;;;;;;;;;;;;;;5132073;27;986;-67
2022/06/24 07:37:01;;;;;;;;;;;;;;;;;;5130403;27;1978;-66
2022/06/24 07:39:27;;;;;;;;;;;;;;;;;;5132059;27;1250;-66
2022/06/24 07:41:53;;;;;;;;;;;;;;;;;;5131595;27;1045;-66
2022/06/24 07:44:18;;;;;;;;;;;;;;;;;;5130052;27;1253;-66
2022/06/24 07:46:43;;;;;;;;;;;;;;;;;;5130098;27;1191;-66
2022/06/24 07:49:08;;;;;;;;;;;;;;;;;;5130491;27;1233;-66
2022/06/24 07:51:34;;;;;;;;;;;;;;;;;;5131423;27;958;-66
2022/06/24 07:53:59;;;;;;;;;;;;;;;;;;5131559;27;774;-66
2022/06/24 07:59:08;;;;;;;;;;;;;;;;;;5131075;27;640;-66
2022/06/24 08:01:34;;;;;;;;;;;;;;;;;;5130111;27;920;-67
2022/06/24 08:04:00;;;;;;;;;;;;;;;;;;5131018;27;891;-67
2022/06/24 08:06:25;;;;;;;;;;;;;;;;;;5130389;27;809;-67
2022/06/24 08:08:51;;;;;;;;;;;;;;;;;;5131448;27;864;-67
2022/06/24 08:11:16;;;;;;;;;;;;;;;;;;5130018;27;1213;-66
2022/06/24 08:13:41;;;;;;;;;;;;;;;;;;5131256;27;883;-67
2022/06/24 08:16:07;;;;;;;;;;;;;;;;;;5131232;28;1894;-66
2022/06/24 08:18:32;;;;;;;;;;;;;;;;;;5129945;28;868;-66
2022/06/24 08:20:57;;;;;;;;;;;;;;;;;;5131347;28;947;-66
2022/06/24 08:23:22;;;;;;;;;;;;;;;;;;5131987;27;1061;-66
2022/06/24 08:25:48;;;;;;;;;;;;;;;;;;5130094;27;828;-67
2022/06/24 08:28:13;;;;;;;;;;;;;;;;;;5130055;27;892;-66
2022/06/24 08:30:38;;;;;;;;;;;;;;;;;;5113134;28;1782;-66
2022/06/24 08:33:04;;;;;;;;;;;;;;;;;;5112592;28;1298;-67
2022/06/24 08:35:29;;;;;;;;;;;;;;;;;;5131633;28;892;-66
2022/06/24 08:37:55;;;;;;;;;;;;;;;;;;5131785;27;1909;-66
2022/06/24 08:40:21;;;;;;;;;;;;;;;;;;5132084;27;871;-67
2022/06/24 08:42:51;;;;;;;;;;;;;;;;;;5131484;27;919;-66
2022/06/24 08:45:16;;;;;;;;;;;;;;;;;;5133742;27;1490;-67
2022/06/24 08:47:43;;;;;;;;;;;;;;;;;;5117151;27;1280;-66
2022/06/24 08:50:09;;;;;;;;;;;;;;;;;;5135070;27;1173;-67
2022/06/24 08:52:34;;;;;;;;;;;;;;;;;;5136027;27;1050;-69
2022/06/24 08:55:00;;;;;;;;;;;;;;;;;;5133830;27;1110;-69
2022/06/24 08:57:25;;;;;;;;;;;;;;;;;;5131067;27;1901;-69
2022/06/24 08:59:51;;;;;;;;;;;;;;;;;;5115278;27;1202;-68
2022/06/24 09:02:17;;;;;;;;;;;;;;;;;;5119897;27;1182;-68
2022/06/24 09:04:43;;;;;;;;;;;;;;;;;;5112861;28;1392;-69
2022/06/24 09:07:15;;;;;;;;;;;;;;;;;;5113172;28;1511;-69
2022/06/24 09:09:41;;;;;;;;;;;;;;;;;;5114382;28;987;-68
2022/06/24 09:12:07;;;;;;;;;;;;;;;;;;5112934;28;1258;-68
2022/06/24 09:14:43;;;;;;;;;;;;;;;;;;5112529;28;944;-69
2022/06/24 09:17:09;;;;;;;;;;;;;;;;;;5113033;28;1901;-69
2022/06/24 09:19:36;;;;;;;;;;;;;;;;;;5111496;28;1371;-68
2022/06/24 09:22:01;;;;;;;;;;;;;;;;;;5113544;28;935;-66
2022/06/24 09:24:53;;;;;;;;;;;;;;;;;;5113724;28;868;-65
2022/06/24 09:27:20;;;;;;;;;;;;;;;;;;5108446;28;1541;-66
2022/06/24 09:29:48;;;;;;;;;;;;;;;;;;5113560;28;886;-67
2022/06/24 09:32:14;;;;;;;;;;;;;;;;;;5094877;28;1624;-66
2022/06/24 09:34:56;;;;;;;;;;;;;;;;;;5114025;28;831;-66
2022/06/24 09:37:41;;;;;;;;;;;;;;;;;;5113185;28;1905;-67
2022/06/24 09:40:19;;;;;;;;;;;;;;;;;;5113841;28;832;-66
2022/06/24 09:42:54;;;;;;;;;;;;;;;;;;5113106;28;884;-66
2022/06/24 09:45:20;;;;;;;;;;;;;;;;;;5111681;28;821;-67
2022/06/24 09:47:49;;;;;;;;;;;;;;;;;;5113097;28;832;-66
2022/06/24 09:50:15;;;;;;;;;;;;;;;;;;5113097;28;1073;-66
2022/06/24 09:52:40;;;;;;;;;;;;;;;;;;5113121;28;851;-66
2022/06/24 09:55:06;;;;;;;;;;;;;;;;;;5109844;28;1273;-66
2022/06/24 09:57:32;;;;;;;;;;;;;;;;;;5112815;28;1905;-66
2022/06/24 10:02:43;;;;;;;;;;;;;;;;;;5113335;28;710;-66
2022/06/24 10:05:09;;;;;;;;;;;;;;;;;;5111904;28;828;-66
2022/06/24 10:07:36;;;;;;;;;;;;;;;;;;5113420;28;840;-66
2022/06/24 10:10:02;;;;;;;;;;;;;;;;;;5112568;28;891;-67
2022/06/24 10:12:28;;;;;;;;;;;;;;;;;;5113409;28;706;-67
2022/06/24 10:14:55;;;;;;;;;;;;;;;;;;5112776;28;967;-66
2022/06/24 10:17:20;;;;;;;;;;;;;;;;;;5113180;28;1956;-66
2022/06/24 10:19:46;;;;;;;;;;;;;;;;;;5111776;28;969;-66
2022/06/24 10:22:31;;;;;;;;;;;;;;;;;;5111523;28;1190;-67
2022/06/24 10:24:57;;;;;;;;;;;;;;;;;;5111256;28;1255;-67
2022/06/24 10:27:42;;;;;;;;;;;;;;;;;;5112824;28;1221;-66
2022/06/24 10:30:08;;;;;;;;;;;;;;;;;;5117987;27;1155;-66
2022/06/24 10:32:33;;;;;;;;;;;;;;;;;;5126684;27;1175;-67
2022/06/24 10:34:59;;;;;;;;;;;;;;;;;;5133869;27;847;-66
2022/06/24 10:37:25;;;;;;;;;;;;;;;;;;5132595;27;1992;-66
2022/06/24 10:39:52;;;;;;;;;;;;;;;;;;5132870;27;1142;-67
2022/06/24 10:42:20;;;;;;;;;;;;;;;;;;5134207;27;915;-66
2022/06/24 10:44:54;;;;;;;;;;;;;;;;;;5133838;27;824;-66
2022/06/24 10:47:39;;;;;;;;;;;;;;;;;;5133964;27;912;-66
2022/06/24 10:50:15;;;;;;;;;;;;;;;;;;5132176;27;1221;-66
2022/06/24 10:52:45;;;;;;;;;;;;;;;;;;5133498;27;927;-66
2022/06/24 10:57:45;;;;;;;;;;;;;;;;;;5133447;27;1917;-65
2022/06/24 11:00:19;;;;;;;;;;;;;;;;;;5132881;27;848;-65
2022/06/24 11:02:45;;;;;;;;;;;;;;;;;;5132315;27;824;-66
2022/06/24 11:05:23;;;;;;;;;;;;;;;;;;5132760;27;902;-66
2022/06/24 11:07:49;;;;;;;;;;;;;;;;;;5132134;27;986;-65
2022/06/24 11:10:26;;;;;;;;;;;;;;;;;;5132481;27;986;-66
2022/06/24 11:12:52;;;;;;;;;;;;;;;;;;5131307;27;1268;-66
2022/06/24 11:15:18;;;;;;;;;;;;;;;;;;5113773;27;1212;-66
2022/06/24 11:17:43;;;;;;;;;;;;;;;;;;5132114;27;1964;-66
2022/06/24 11:20:12;;;;;;;;;;;;;;;;;;5132906;27;769;-67
2022/06/24 11:22:41;;;;;;;;;;;;;;;;;;5131224;27;1401;-66
2022/06/24 11:25:07;;;;;;;;;;;;;;;;;;5130786;27;1355;-66
2022/06/24 11:27:38;;;;;;;;;;;;;;;;;;5131239;27;982;-66
2022/06/24 11:30:04;;;;;;;;;;;;;;;;;;5132700;27;902;-66
2022/06/24 11:32:48;;;;;;;;;;;;;;;;;;5133004;27;1252;-66
2022/06/24 11:35:17;;;;;;;;;;;;;;;;;;5133806;27;934;-66
2022/06/24 11:37:43;;;;;;;;;;;;;;;;;;5136156;27;1975;-65
2022/06/24 11:40:08;;;;;;;;;;;;;;;;;;5133158;27;1190;-65
2022/06/24 11:42:34;;;;;;;;;;;;;;;;;;5131541;27;1420;-66
2022/06/24 11:44:59;;;;;;;;;;;;;;;;;;5131338;27;825;-66
2022/06/24 11:47:31;;;;;;;;;;;;;;;;;;5114349;27;1152;-66
2022/06/24 11:49:56;;;;;;;;;;;;;;;;;;5133085;27;1054;-65
2022/06/24 11:52:21;;;;;;;;;;;;;;;;;;5131611;27;1062;-66
2022/06/24 11:54:47;;;;;;;;;;;;;;;;;;5132420;27;939;-66
2022/06/24 11:57:12;;;;;;;;;;;;;;;;;;5130017;27;1905;-66
2022/06/24 11:59:38;;;;;;;;;;;;;;;;;;5132492;27;875;-65
2022/06/24 12:02:03;;;;;;;;;;;;;;;;;;5131550;27;844;-66
2022/06/24 12:04:29;;;;;;;;;;;;;;;;;;5131535;27;855;-66
2022/06/24 12:06:54;;;;;;;;;;;;;;;;;;5131307;27;832;-67
2022/06/24 12:09:20;;;;;;;;;;;;;;;;;;5129917;27;1194;-66
2022/06/24 12:11:46;;;;;;;;;;;;;;;;;;5131223;27;900;-66
2022/06/24 12:14:12;;;;;;;;;;;;;;;;;;5131882;27;840;-66
2022/06/24 12:16:58;;;;;;;;;;;;;;;;;;5131744;27;1956;-66
2022/06/24 12:19:24;;;;;;;;;;;;;;;;;;5134171;27;860;-66
2022/06/24 12:21:50;;;;;;;;;;;;;;;;;;5134487;27;883;-66
2022/06/24 12:24:25;;;;;;;;;;;;;;;;;;5136052;27;836;-66
2022/06/24 12:26:51;;;;;;;;;;;;;;;;;;5134738;27;1387;-66
2022/06/24 12:29:23;;;;;;;;;;;;;;;;;;5135102;27;1229;-66
2022/06/24 12:31:52;;;;;;;;;;;;;;;;;;5135940;27;1289;-66
2022/06/24 12:34:27;;;;;;;;;;;;;;;;;;5136132;27;927;-67
2022/06/24 12:36:57;;;;;;;;;;;;;;;;;;5135583;27;1972;-66
2022/06/24 12:39:30;;;;;;;;;;;;;;;;;;5135948;27;1057;-66
2022/06/24 12:41:55;;;;;;;;;;;;;;;;;;5134337;27;927;-66
2022/06/24 12:44:21;;;;;;;;;;;;;;;;;;5134863;27;1206;-67
2022/06/24 12:52:33;;;;;;;;;;;;;;;;;;5135299;27;643;-67
2022/06/24 12:54:59;;;;;;;;;;;;;;;;;;5134869;27;875;-67
2022/06/24 12:57:24;;;;;;;;;;;;;;;;;;5134849;27;1965;-66
2022/06/24 12:59:49;;;;;;;;;;;;;;;;;;5132888;27;801;-67
2022/06/24 13:02:15;;;;;;;;;;;;;;;;;;5133185;27;1201;-67
2022/06/24 13:04:40;;;;;;;;;;;;;;;;;;5133495;27;852;-67
2022/06/24 13:07:06;;;;;;;;;;;;;;;;;;5132791;27;840;-67
2022/06/24 13:09:31;;;;;;;;;;;;;;;;;;5134095;27;875;-66
2022/06/24 13:11:57;;;;;;;;;;;;;;;;;;5134336;27;939;-66
2022/06/24 13:14:22;;;;;;;;;;;;;;;;;;5134199;27;954;-67
2022/06/24 13:16:47;;;;;;;;;;;;;;;;;;5133678;27;1901;-67
2022/06/24 13:19:12;;;;;;;;;;;;;;;;;;5132619;27;1164;-66
2022/06/24 13:21:38;;;;;;;;;;;;;;;;;;5134278;27;896;-65
2022/06/24 13:24:03;;;;;;;;;;;;;;;;;;5132586;27;820;-66
2022/06/24 13:26:28;;;;;;;;;;;;;;;;;;5134130;27;883;-66
2022/06/24 13:28:53;;;;;;;;;;;;;;;;;;5133558;27;1026;-65
2022/06/24 13:31:19;;;;;;;;;;;;;;;;;;5114678;27;1191;-66
2022/06/24 13:33:44;;;;;;;;;;;;;;;;;;5133502;27;943;-66
2022/06/24 13:36:09;;;;;;;;;;;;;;;;;;5134129;27;1890;-66
2022/06/24 13:38:34;;;;;;;;;;;;;;;;;;5133753;27;761;-66
2022/06/24 13:41:00;;;;;;;;;;;;;;;;;;5133639;27;887;-66
2022/06/24 13:43:25;;;;;;;;;;;;;;;;;;5134208;27;879;-66
2022/06/24 13:45:51;;;;;;;;;;;;;;;;;;5132806;27;920;-66
2022/06/24 13:48:16;;;;;;;;;;;;;;;;;;5115416;27;1198;-66
2022/06/24 13:50:41;;;;;;;;;;;;;;;;;;5134025;27;867;-66
2022/06/24 13:53:07;;;;;;;;;;;;;;;;;;5115544;27;1341;-67
2022/06/24 13:55:33;;;;;;;;;;;;;;;;;;5133938;27;931;-66
2022/06/24 13:57:58;;;;;;;;;;;;;;;;;;5132314;27;1902;-66
2022/06/24 14:00:23;;;;;;;;;;;;;;;;;;5133068;27;1310;-66
2022/06/24 14:02:49;;;;;;;;;;;;;;;;;;5132722;27;1289;-66
2022/06/24 14:05:14;;;;;;;;;;;;;;;;;;5134017;27;931;-67
2022/06/24 14:07:39;;;;;;;;;;;;;;;;;;5134611;27;828;-66
2022/06/24 14:10:05;;;;;;;;;;;;;;;;;;5133361;27;1177;-66
2022/06/24 14:12:30;;;;;;;;;;;;;;;;;;5134623;27;788;-66
2022/06/24 14:14:56;;;;;;;;;;;;;;;;;;5134350;27;891;-67
2022/06/24 14:17:21;;;;;;;;;;;;;;;;;;5134563;27;1948;-66
2022/06/24 14:19:46;;;;;;;;;;;;;;;;;;5132377;27;1190;-67
2022/06/24 14:22:12;;;;;;;;;;;;;;;;;;5133847;27;1259;-67
2022/06/24 14:24:37;;;;;;;;;;;;;;;;;;5134171;27;824;-66
2022/06/24 14:27:03;;;;;;;;;;;;;;;;;;5133701;27;929;-67
2022/06/24 14:29:29;;;;;;;;;;;;;;;;;;5134000;27;1244;-66
2022/06/24 14:31:55;;;;;;;;;;;;;;;;;;5133060;27;1274;-66
2022/06/24 14:34:20;;;;;;;;;;;;;;;;;;5115392;27;1293;-66
2022/06/24 14:36:45;;;;;;;;;;;;;;;;;;5131629;27;1941;-66
2022/06/24 14:41:55;;;;;;;;;;;;;;;;;;5131614;27;749;-66
2022/06/24 14:44:20;;;;;;;;;;;;;;;;;;5133785;27;847;-66
2022/06/24 14:46:45;;;;;;;;;;;;;;;;;;5132306;27;1041;-66
2022/06/24 14:49:10;;;;;;;;;;;;;;;;;;5131458;27;1130;-66
2022/06/24 14:51:36;;;;;;;;;;;;;;;;;;5132545;27;769;-66
2022/06/24 14:54:01;;;;;;;;;;;;;;;;;;5132121;27;934;-67
2022/06/24 14:56:27;;;;;;;;;;;;;;;;;;5132839;27;2035;-67
2022/06/24 14:58:52;;;;;;;;;;;;;;;;;;5132237;27;993;-66
2022/06/24 15:01:17;;;;;;;;;;;;;;;;;;5133163;27;971;-66
2022/06/24 15:03:43;;;;;;;;;;;;;;;;;;5132135;27;1014;-66
2022/06/24 15:06:08;;;;;;;;;;;;;;;;;;5113989;27;967;-66
2022/06/24 15:08:36;;;;;;;;;;;;;;;;;;5132643;27;887;-66
2022/06/24 15:11:02;;;;;;;;;;;;;;;;;;5131732;27;903;-66
2022/06/24 15:13:28;;;;;;;;;;;;;;;;;;5132497;27;894;-66
2022/06/24 15:15:53;;;;;;;;;;;;;;;;;;5131492;27;844;-67
2022/06/24 15:18:18;;;;;;;;;;;;;;;;;;5131172;27;2014;-66
2022/06/24 15:20:44;;;;;;;;;;;;;;;;;;5113950;27;1198;-66
2022/06/24 15:23:09;;;;;;;;;;;;;;;;;;5131078;27;1340;-66
2022/06/24 15:25:34;;;;;;;;;;;;;;;;;;5131033;27;1324;-66
2022/06/24 15:28:00;;;;;;;;;;;;;;;;;;5131702;27;1012;-66
2022/06/24 15:30:25;;;;;;;;;;;;;;;;;;5130737;27;825;-66
2022/06/24 15:32:51;;;;;;;;;;;;;;;;;;5131934;27;1089;-66
2022/06/24 15:35:17;;;;;;;;;;;;;;;;;;5132420;27;753;-66
2022/06/24 15:37:42;;;;;;;;;;;;;;;;;;5131917;27;1906;-66
2022/06/24 15:40:07;;;;;;;;;;;;;;;;;;5131997;27;900;-66
2022/06/24 15:42:33;;;;;;;;;;;;;;;;;;5130826;27;1154;-66
2022/06/24 15:44:58;;;;;;;;;;;;;;;;;;5130347;27;848;-66
2022/06/24 15:47:23;;;;;;;;;;;;;;;;;;5132421;27;844;-66
2022/06/24 15:49:49;;;;;;;;;;;;;;;;;;5130317;27;816;-68
2022/06/24 15:52:14;;;;;;;;;;;;;;;;;;5132151;27;824;-66
2022/06/24 15:54:39;;;;;;;;;;;;;;;;;;5132672;27;907;-66
2022/06/24 15:57:04;;;;;;;;;;;;;;;;;;5131850;27;1906;-66
2022/06/24 15:59:30;;;;;;;;;;;;;;;;;;5132503;27;865;-66
2022/06/24 16:01:55;;;;;;;;;;;;;;;;;;5130387;27;983;-66
2022/06/24 16:04:20;;;;;;;;;;;;;;;;;;5113773;27;1301;-66
2022/06/24 16:06:46;;;;;;;;;;;;;;;;;;5132688;27;907;-66
2022/06/24 16:09:11;;;;;;;;;;;;;;;;;;5132311;27;900;-66
2022/06/24 16:11:36;;;;;;;;;;;;;;;;;;5131477;27;1291;-66
2022/06/24 16:14:02;;;;;;;;;;;;;;;;;;5132137;28;856;-66
2022/06/24 16:16:28;;;;;;;;;;;;;;;;;;5131061;28;1905;-66
2022/06/24 16:18:53;;;;;;;;;;;;;;;;;;5131809;27;844;-66
2022/06/24 16:21:19;;;;;;;;;;;;;;;;;;5132544;27;832;-65
2022/06/24 16:23:44;;;;;;;;;;;;;;;;;;5131956;27;873;-66
2022/06/24 16:28:53;;;;;;;;;;;;;;;;;;5131268;28;958;-66
2022/06/24 16:31:21;;;;;;;;;;;;;;;;;;5131400;28;1075;-66
2022/06/24 16:33:48;;;;;;;;;;;;;;;;;;5131278;27;855;-66
2022/06/24 16:36:14;;;;;;;;;;;;;;;;;;5129980;28;1988;-66
2022/06/24 16:38:40;;;;;;;;;;;;;;;;;;5131378;27;777;-66
2022/06/24 16:41:06;;;;;;;;;;;;;;;;;;5129475;27;1221;-66
2022/06/24 16:43:31;;;;;;;;;;;;;;;;;;5130450;28;845;-66
2022/06/24 16:45:59;;;;;;;;;;;;;;;;;;5131262;27;781;-66
2022/06/24 16:48:26;;;;;;;;;;;;;;;;;;5131437;27;916;-66
2022/06/24 16:50:53;;;;;;;;;;;;;;;;;;5131170;27;836;-66
2022/06/24 16:53:20;;;;;;;;;;;;;;;;;;5129741;27;1166;-66
2022/06/24 16:55:46;;;;;;;;;;;;;;;;;;5131040;27;882;-65
2022/06/24 16:58:11;;;;;;;;;;;;;;;;;;5128325;28;1905;-66
2022/06/24 17:00:38;;;;;;;;;;;;;;;;;;5129532;28;856;-66
2022/06/24 17:03:04;;;;;;;;;;;;;;;;;;5130368;27;902;-66
2022/06/24 17:05:30;;;;;;;;;;;;;;;;;;5131872;27;1229;-67
2022/06/24 17:07:58;;;;;;;;;;;;;;;;;;5132910;27;812;-66
2022/06/24 17:10:24;;;;;;;;;;;;;;;;;;5134487;27;863;-66
2022/06/24 17:12:49;;;;;;;;;;;;;;;;;;5133003;27;800;-66
2022/06/24 17:15:18;;;;;;;;;;;;;;;;;;5134663;27;785;-66
2022/06/24 17:17:44;;;;;;;;;;;;;;;;;;5133201;27;1967;-66
2022/06/24 17:20:09;;;;;;;;;;;;;;;;;;5134409;27;871;-66
2022/06/24 17:22:34;;;;;;;;;;;;;;;;;;5134952;27;978;-66
2022/06/24 17:25:00;;;;;;;;;;;;;;;;;;5132959;27;1201;-66
2022/06/24 17:27:26;;;;;;;;;;;;;;;;;;5126355;27;1336;-66
2022/06/24 17:29:51;;;;;;;;;;;;;;;;;;5110251;27;1307;-66
2022/06/24 17:32:16;;;;;;;;;;;;;;;;;;5110986;28;1506;-66
2022/06/24 17:34:41;;;;;;;;;;;;;;;;;;5112489;28;1214;-66